createdAt,value
2018-03-08T00:01:08.076Z,8.13
2018-03-08T00:03:34.609Z,6.82
2018-03-08T00:06:01.251Z,7.30
2018-03-08T00:08:27.679Z,8.10
2018-03-08T00:10:54.078Z,9.60
2018-03-08T00:13:21.385Z,7.27
2018-03-08T00:15:48.111Z,9.93
2018-03-08T00:18:14.625Z,7.57
2018-03-08T00:20:41.077Z,6.70
2018-03-08T00:23:07.533Z,9.67
2018-03-08T00:25:33.974Z,7.57
2018-03-08T00:28:00.399Z,7.68
2018-03-08T00:30:26.847Z,7.18
2018-03-08T00:32:53.634Z,8.73
2018-03-08T00:35:20.107Z,8.02
2018-03-08T00:37:46.650Z,8.85
2018-03-08T00:40:13.197Z,7.68
2018-03-08T00:42:39.660Z,7.95
2018-03-08T00:45:06.130Z,7.97
2018-03-08T00:47:32.744Z,8.77
2018-03-08T00:50:00.119Z,7.43
2018-03-08T00:52:26.546Z,8.65
2018-03-08T00:54:53.988Z,7.00
2018-03-08T00:57:20.412Z,7.00
2018-03-08T00:59:47.665Z,8.63
2018-03-08T01:02:14.158Z,7.12
2018-03-08T01:04:40.571Z,8.43
2018-03-08T01:07:06.988Z,8.15
2018-03-08T01:09:33.434Z,8.15
2018-03-08T01:12:00.092Z,7.78
2018-03-08T01:14:26.503Z,7.30
2018-03-08T01:16:53.138Z,6.65
2018-03-08T01:19:19.659Z,7.72
2018-03-08T01:21:46.168Z,8.10
2018-03-08T01:24:13.437Z,7.93
2018-03-08T01:26:39.987Z,9.20
2018-03-08T01:29:06.404Z,7.27
2018-03-08T01:31:32.830Z,8.05
2018-03-08T01:33:59.464Z,8.70
2018-03-08T01:36:26.688Z,6.93
2018-03-08T01:38:53.317Z,7.25
2018-03-08T01:41:19.876Z,6.95
2018-03-08T01:43:46.349Z,6.67
2018-03-08T01:46:12.922Z,9.00
2018-03-08T01:48:39.368Z,7.53
2018-03-08T01:51:05.816Z,6.37
2018-03-08T01:53:33.050Z,7.00
2018-03-08T01:55:59.524Z,7.78
2018-03-08T01:58:26.688Z,7.37
2018-03-08T02:00:58.871Z,7.90
2018-03-08T02:03:25.409Z,7.20
2018-03-08T02:05:51.872Z,7.65
2018-03-08T02:08:18.328Z,8.13
2018-03-08T02:10:44.882Z,7.32
2018-03-08T02:13:11.328Z,6.18
2018-03-08T02:15:37.817Z,7.55
2018-03-08T02:18:04.307Z,6.73
2018-03-08T02:20:30.765Z,6.90
2018-03-08T02:22:57.229Z,8.02
2018-03-08T02:25:24.402Z,7.85
2018-03-08T02:27:50.830Z,7.40
2018-03-08T02:30:17.260Z,6.87
2018-03-08T02:32:43.764Z,8.05
2018-03-08T02:35:10.353Z,6.80
2018-03-08T02:37:36.817Z,6.93
2018-03-08T02:40:03.997Z,6.43
2018-03-08T02:42:30.473Z,5.65
2018-03-08T02:44:57.032Z,6.25
2018-03-08T02:47:23.625Z,6.90
2018-03-08T02:49:50.238Z,7.43
2018-03-08T02:52:16.812Z,6.85
2018-03-08T02:54:43.250Z,7.15
2018-03-08T02:57:09.852Z,7.07
2018-03-08T02:59:36.302Z,4.10
2018-03-08T03:02:02.807Z,6.72
2018-03-08T03:04:29.400Z,6.45
2018-03-08T03:06:56.601Z,6.97
2018-03-08T03:09:23.089Z,6.50
2018-03-08T03:11:49.638Z,7.20
2018-03-08T03:14:16.096Z,5.32
2018-03-08T03:16:42.592Z,5.90
2018-03-08T03:19:09.786Z,6.43
2018-03-08T03:21:36.189Z,5.03
2018-03-08T03:24:02.727Z,7.50
2018-03-08T03:26:29.192Z,6.70
2018-03-08T03:28:55.656Z,5.95
2018-03-08T03:31:22.114Z,7.45
2018-03-08T03:33:49.294Z,6.87
2018-03-08T03:36:15.789Z,8.82
2018-03-08T03:38:43.208Z,5.70
2018-03-08T03:41:09.682Z,6.35
2018-03-08T03:43:36.148Z,6.95
2018-03-08T03:46:02.810Z,6.67
2018-03-08T03:48:29.290Z,6.82
2018-03-08T03:50:55.855Z,5.65
2018-03-08T03:53:23.223Z,7.43
2018-03-08T03:55:49.749Z,5.03
2018-03-08T03:58:16.276Z,6.82
2018-03-08T04:00:42.748Z,7.78
2018-03-08T04:03:09.230Z,5.72
2018-03-08T04:05:36.462Z,6.40
2018-03-08T04:08:03.113Z,6.25
2018-03-08T04:10:30.265Z,5.17
2018-03-08T04:12:57.471Z,8.60
2018-03-08T04:15:24.752Z,5.62
2018-03-08T04:17:51.158Z,6.60
2018-03-08T04:20:17.585Z,6.60
2018-03-08T04:22:44.050Z,6.75
2018-03-08T04:25:10.507Z,6.80
2018-03-08T04:27:37.014Z,6.10
2018-03-08T04:30:03.557Z,6.45
2018-03-08T04:32:30.084Z,5.75
2018-03-08T04:34:56.536Z,5.57
2018-03-08T04:37:23.869Z,6.82
2018-03-08T04:39:50.351Z,5.65
2018-03-08T04:42:16.840Z,7.87
2018-03-08T04:44:43.326Z,5.78
2018-03-08T04:47:09.863Z,7.20
2018-03-08T04:49:36.267Z,6.27
2018-03-08T04:52:03.464Z,5.20
2018-03-08T04:54:29.957Z,7.20
2018-03-08T04:56:56.424Z,7.17
2018-03-08T04:59:23.674Z,7.28
2018-03-08T05:01:50.246Z,6.57
2018-03-08T05:04:16.749Z,7.82
2018-03-08T05:06:43.150Z,6.78
2018-03-08T05:09:09.799Z,7.70
2018-03-08T05:11:36.256Z,6.70
2018-03-08T05:14:02.665Z,6.57
2018-03-08T05:16:29.186Z,7.03
2018-03-08T05:18:55.994Z,7.23
2018-03-08T05:21:22.652Z,6.22
2018-03-08T05:23:50.079Z,7.35
2018-03-08T05:26:16.506Z,7.28
2018-03-08T05:28:43.109Z,6.97
2018-03-08T05:31:10.465Z,8.48
2018-03-08T05:33:37.674Z,7.37
2018-03-08T05:36:04.110Z,6.50
2018-03-08T05:38:30.629Z,6.68
2018-03-08T05:40:57.048Z,6.40
2018-03-08T05:43:23.577Z,8.23
2018-03-08T05:45:50.192Z,7.10
2018-03-08T05:48:16.587Z,6.47
2018-03-08T05:50:43.060Z,8.35
2018-03-08T05:53:09.511Z,6.57
2018-03-08T05:55:35.967Z,7.25
2018-03-08T05:58:02.498Z,7.67
2018-03-08T06:00:28.984Z,6.32
2018-03-08T06:02:56.175Z,7.25
2018-03-08T06:05:22.643Z,7.78
2018-03-08T06:07:49.056Z,7.87
2018-03-08T06:10:15.511Z,8.80
2018-03-08T06:12:42.036Z,7.12
2018-03-08T06:15:08.524Z,7.90
2018-03-08T06:17:35.746Z,7.63
2018-03-08T06:20:02.230Z,6.53
2018-03-08T06:22:28.824Z,7.35
2018-03-08T06:24:56.225Z,7.12
2018-03-08T06:27:23.608Z,7.07
2018-03-08T06:29:50.137Z,8.00
2018-03-08T06:32:16.573Z,6.20
2018-03-08T06:34:43.480Z,7.32
2018-03-08T06:37:10.062Z,7.07
2018-03-08T06:39:36.521Z,5.90
2018-03-08T06:42:03.665Z,7.78
2018-03-08T06:44:31.890Z,7.50
2018-03-08T06:46:58.443Z,6.75
2018-03-08T06:49:24.922Z,6.78
2018-03-08T06:51:51.374Z,7.65
2018-03-08T06:54:18.758Z,7.82
2018-03-08T06:56:46.082Z,6.35
2018-03-08T06:59:13.328Z,7.82
2018-03-08T07:01:40.612Z,6.57
2018-03-08T07:04:07.063Z,6.20
2018-03-08T07:06:33.738Z,6.63
2018-03-08T07:09:00.227Z,7.97
2018-03-08T07:11:26.745Z,8.15
2018-03-08T07:13:53.301Z,8.48
2018-03-08T07:16:19.889Z,7.82
2018-03-08T07:18:46.383Z,8.27
2018-03-08T07:21:12.991Z,7.90
2018-03-08T07:23:39.471Z,7.43
2018-03-08T07:26:05.949Z,8.70
2018-03-08T07:28:32.455Z,9.85
2018-03-08T07:30:58.981Z,9.55
2018-03-08T07:33:26.463Z,7.12
2018-03-08T07:35:53.777Z,8.23
2018-03-08T07:38:20.226Z,6.70
2018-03-08T07:40:46.719Z,10.85
2018-03-08T07:43:13.383Z,7.93
2018-03-08T07:45:39.859Z,7.57
2018-03-08T07:48:06.300Z,8.27
2018-03-08T07:50:33.627Z,9.55
2018-03-08T07:53:00.149Z,8.05
2018-03-08T07:55:27.301Z,7.75
2018-03-08T07:57:53.951Z,6.93
2018-03-08T08:00:20.559Z,7.28
2018-03-08T08:02:47.120Z,7.75
2018-03-08T08:05:25.758Z,6.17
2018-03-08T08:08:05.161Z,8.73
2018-03-08T08:10:31.710Z,9.55
2018-03-08T08:12:58.142Z,6.90
2018-03-08T08:15:25.330Z,7.82
2018-03-08T08:17:51.846Z,7.25
2018-03-08T08:20:18.340Z,6.85
2018-03-08T08:22:44.845Z,7.30
2018-03-08T08:25:11.316Z,8.63
2018-03-08T08:27:37.696Z,6.93
2018-03-08T08:30:04.230Z,8.07
2018-03-08T08:32:30.708Z,6.85
2018-03-08T08:34:57.128Z,8.00
2018-03-08T08:37:23.587Z,7.95
2018-03-08T08:39:50.112Z,7.12
2018-03-08T08:42:16.598Z,6.70
2018-03-08T08:44:43.019Z,8.13
2018-03-08T08:47:09.525Z,8.70
2018-03-08T08:49:35.989Z,7.78
2018-03-08T08:52:02.499Z,7.68
2018-03-08T08:54:29.968Z,7.62
2018-03-08T08:56:56.494Z,8.05
2018-03-08T08:59:23.664Z,8.27
2018-03-08T09:01:50.845Z,7.65
2018-03-08T09:04:17.256Z,8.75
2018-03-08T09:06:43.773Z,7.65
2018-03-08T09:09:10.988Z,8.00
2018-03-08T09:11:37.460Z,6.47
2018-03-08T09:14:04.020Z,6.78
2018-03-08T09:16:30.420Z,7.18
2018-03-08T09:18:56.849Z,7.20
2018-03-08T09:21:23.393Z,7.27
2018-03-08T09:23:49.810Z,6.82
2018-03-08T09:26:16.370Z,6.28
2018-03-08T09:28:42.825Z,6.03
2018-03-08T09:31:09.340Z,7.72
2018-03-08T09:33:35.924Z,8.05
2018-03-08T09:36:02.518Z,6.93
2018-03-08T09:38:29.154Z,6.37
2018-03-08T09:40:55.674Z,6.45
2018-03-08T09:43:22.174Z,8.07
2018-03-08T09:45:49.374Z,9.05
2018-03-08T09:48:15.829Z,7.35
2018-03-08T09:50:42.298Z,7.17
2018-03-08T09:53:08.804Z,7.07
2018-03-08T09:55:35.251Z,6.60
2018-03-08T09:58:02.442Z,6.15
2018-03-08T10:00:29.712Z,6.78
2018-03-08T10:02:56.206Z,7.78
2018-03-08T10:05:22.758Z,6.93
2018-03-08T10:07:49.287Z,6.40
2018-03-08T10:10:15.818Z,5.60
2018-03-08T10:12:42.536Z,7.07
2018-03-08T10:15:08.956Z,7.07
2018-03-08T10:17:35.453Z,6.63
2018-03-08T10:20:01.900Z,7.15
2018-03-08T10:22:28.447Z,7.12
2018-03-08T10:24:54.966Z,7.95
2018-03-08T10:27:21.526Z,8.77
2018-03-08T10:29:48.017Z,8.85
2018-03-08T10:32:14.502Z,9.63
2018-03-08T10:34:42.611Z,7.57
2018-03-08T10:37:09.118Z,6.40
2018-03-08T10:39:35.652Z,7.40
2018-03-08T10:42:02.217Z,6.35
2018-03-08T10:44:28.683Z,7.28
2018-03-08T10:46:55.961Z,7.75
2018-03-08T10:49:22.452Z,10.83
2018-03-08T10:51:49.154Z,6.80
2018-03-08T10:54:15.710Z,6.43
2018-03-08T10:56:42.940Z,6.97
2018-03-08T10:59:09.484Z,7.85
2018-03-08T11:01:42.004Z,16.50
2018-03-08T11:04:14.625Z,7.37
2018-03-08T11:06:41.233Z,7.35
2018-03-08T11:09:07.770Z,7.37
2018-03-08T11:11:34.279Z,6.75
2018-03-08T11:14:00.839Z,7.35
2018-03-08T11:16:27.976Z,6.97
2018-03-08T11:18:54.523Z,7.35
2018-03-08T11:21:20.973Z,9.32
2018-03-08T11:23:47.404Z,8.07
2018-03-08T11:26:14.038Z,6.60
2018-03-08T11:28:40.533Z,7.37
2018-03-08T11:31:07.136Z,9.18
2018-03-08T11:33:33.635Z,9.10
2018-03-08T11:36:00.132Z,12.88
2018-03-08T11:38:26.630Z,7.60
2018-03-08T11:40:53.049Z,6.50
2018-03-08T11:43:19.642Z,7.20
2018-03-08T11:45:46.472Z,7.57
2018-03-08T11:48:13.120Z,8.90
2018-03-08T11:50:39.685Z,7.23
2018-03-08T11:53:06.284Z,6.90
2018-03-08T11:55:32.810Z,9.10
2018-03-08T11:57:59.345Z,9.35
2018-03-08T12:00:25.852Z,8.27
2018-03-08T12:02:52.281Z,7.57
2018-03-08T12:05:18.707Z,8.35
2018-03-08T12:07:45.357Z,7.93
2018-03-08T12:10:11.949Z,8.98
2018-03-08T12:12:39.181Z,8.05
2018-03-08T12:15:05.728Z,8.07
2018-03-08T12:17:32.156Z,7.73
2018-03-08T12:19:58.636Z,8.33
2018-03-08T12:22:25.074Z,8.85
2018-03-08T12:24:51.588Z,7.10
2018-03-08T12:27:18.194Z,7.20
2018-03-08T12:29:44.796Z,8.67
2018-03-08T12:32:11.324Z,7.07
2018-03-08T12:34:37.909Z,7.33
2018-03-08T12:37:04.515Z,8.77
2018-03-08T12:39:31.795Z,8.57
2018-03-08T12:41:58.336Z,7.73
2018-03-08T12:44:24.949Z,8.10
2018-03-08T12:46:51.436Z,8.73
2018-03-08T12:49:17.897Z,7.90
2018-03-08T12:51:44.595Z,7.63
2018-03-08T12:54:11.075Z,8.23
2018-03-08T12:56:37.564Z,8.93
2018-03-08T12:59:04.127Z,8.77
2018-03-08T13:01:31.399Z,7.87
2018-03-08T13:03:57.850Z,7.77
2018-03-08T13:06:24.615Z,8.33
2018-03-08T13:08:51.839Z,9.50
2018-03-08T13:11:18.416Z,7.37
2018-03-08T13:13:44.974Z,9.00
2018-03-08T13:16:11.559Z,8.10
2018-03-08T13:18:38.008Z,8.07
2018-03-08T13:21:04.515Z,8.07
2018-03-08T13:23:30.938Z,8.57
2018-03-08T13:25:57.444Z,7.83
2018-03-08T13:28:24.665Z,8.63
2018-03-08T13:30:51.385Z,8.47
2018-03-08T13:33:17.963Z,9.50
2018-03-08T13:35:45.453Z,7.80
2018-03-08T13:38:12.674Z,7.47
2018-03-08T13:40:39.231Z,7.80
2018-03-08T13:43:05.749Z,7.57
2018-03-08T13:45:32.198Z,8.27
2018-03-08T13:47:58.651Z,8.53
2018-03-08T13:50:25.360Z,7.62
2018-03-08T13:52:51.845Z,7.60
2018-03-08T13:55:18.327Z,9.47
2018-03-08T13:57:45.000Z,8.73
2018-03-08T14:00:11.498Z,9.50
2018-03-08T14:02:38.733Z,7.27
2018-03-08T14:05:05.267Z,7.83
2018-03-08T14:07:32.645Z,8.80
2018-03-08T14:09:59.191Z,8.33
2018-03-08T14:12:25.733Z,8.40
2018-03-08T14:14:52.350Z,8.17
2018-03-08T14:17:18.794Z,8.73
2018-03-08T14:19:45.953Z,8.70
2018-03-08T14:22:12.507Z,7.57
2018-03-08T14:24:39.738Z,7.90
2018-03-08T14:27:07.030Z,8.50
2018-03-08T14:29:33.420Z,8.13
2018-03-08T14:32:00.323Z,7.80
2018-03-08T14:34:26.910Z,7.90
2018-03-08T14:36:53.436Z,8.20
2018-03-08T14:39:20.002Z,7.70
2018-03-08T14:41:46.630Z,8.90
2018-03-08T14:44:13.115Z,8.27
2018-03-08T14:46:39.657Z,8.33
2018-03-08T14:49:06.111Z,8.67
2018-03-08T14:51:33.253Z,8.13
2018-03-08T14:54:00.486Z,8.27
2018-03-08T14:56:27.133Z,9.07
2018-03-08T14:58:54.379Z,8.10
2018-03-08T15:01:20.872Z,9.40
2018-03-08T15:03:47.287Z,8.20
2018-03-08T15:06:13.816Z,10.57
2018-03-08T15:08:40.388Z,9.17
2018-03-08T15:11:06.817Z,8.73
2018-03-08T15:13:33.334Z,9.10
2018-03-08T15:15:59.914Z,10.43
2018-03-08T15:18:26.397Z,9.13
2018-03-08T15:20:52.938Z,9.70
2018-03-08T15:23:19.390Z,8.37
2018-03-08T15:25:46.051Z,9.40
2018-03-08T15:28:13.445Z,10.23
2018-03-08T15:30:40.644Z,9.53
2018-03-08T15:33:07.096Z,10.17
2018-03-08T15:35:33.687Z,9.55
2018-03-08T15:38:00.206Z,9.03
2018-03-08T15:40:27.406Z,8.63
2018-03-08T15:42:53.932Z,11.27
2018-03-08T15:45:20.464Z,9.73
2018-03-08T15:47:47.017Z,10.80
2018-03-08T15:50:14.434Z,12.43
2018-03-08T15:52:41.177Z,10.57
2018-03-08T15:55:07.695Z,11.67
2018-03-08T15:57:34.926Z,13.37
2018-03-08T16:00:01.451Z,12.50
2018-03-08T16:02:27.980Z,10.50
2018-03-08T16:04:54.486Z,11.27
2018-03-08T16:10:36.385Z,11.47
2018-03-08T16:13:02.990Z,10.83
2018-03-08T16:15:29.490Z,10.97
2018-03-08T16:17:55.991Z,11.07
2018-03-08T16:20:23.253Z,11.70
2018-03-08T16:22:49.792Z,11.07
2018-03-08T16:25:16.296Z,11.53
2018-03-08T16:27:42.830Z,11.77
2018-03-08T16:30:09.446Z,12.07
2018-03-08T16:32:36.553Z,13.30
2018-03-08T16:35:03.207Z,13.40
2018-03-08T16:37:29.995Z,13.27
2018-03-08T16:39:56.537Z,13.97
2018-03-08T16:42:23.916Z,11.47
2018-03-08T16:44:51.149Z,12.27
2018-03-08T16:47:17.611Z,12.03
2018-03-08T16:49:45.133Z,13.63
2018-03-08T16:52:11.743Z,13.38
2018-03-08T16:54:38.182Z,14.83
2018-03-08T16:57:04.854Z,13.80
2018-03-08T16:59:31.368Z,13.80
2018-03-08T17:01:57.858Z,13.07
2018-03-08T17:04:24.458Z,13.77
2018-03-08T17:06:51.686Z,13.40
2018-03-08T17:09:18.128Z,14.17
2018-03-08T17:11:44.706Z,13.87
2018-03-08T17:14:11.118Z,14.77
2018-03-08T17:16:38.315Z,14.40
2018-03-08T17:19:04.837Z,14.30
2018-03-08T17:21:31.442Z,13.70
2018-03-08T17:23:58.686Z,14.60
2018-03-08T17:26:25.339Z,16.60
2018-03-08T17:28:53.308Z,15.87
2018-03-08T17:31:20.656Z,33.40
2018-03-08T17:33:47.385Z,19.17
2018-03-08T17:36:14.104Z,15.80
2018-03-08T17:38:40.542Z,17.03
2018-03-08T17:41:07.161Z,15.83
2018-03-08T17:43:33.609Z,15.10
2018-03-08T17:46:00.166Z,14.47
2018-03-08T17:48:26.623Z,15.83
2018-03-08T17:50:53.080Z,14.27
2018-03-08T17:53:19.566Z,14.60
2018-03-08T17:55:46.221Z,13.67
2018-03-08T17:58:13.052Z,14.70
2018-03-08T18:00:39.569Z,15.00
2018-03-08T18:03:06.433Z,16.57
2018-03-08T18:05:32.913Z,24.93
2018-03-08T18:07:59.459Z,16.03
2018-03-08T18:10:29.213Z,16.73
2018-03-08T18:12:56.063Z,15.33
2018-03-08T18:15:22.645Z,16.10
2018-03-08T18:17:49.208Z,15.20
2018-03-08T18:20:15.801Z,16.80
2018-03-08T18:22:42.412Z,16.90
2018-03-08T18:25:09.219Z,16.43
2018-03-08T18:27:36.604Z,17.30
2018-03-08T18:30:04.754Z,16.93
2018-03-08T18:32:31.354Z,18.67
2018-03-08T18:34:58.514Z,18.17
2018-03-08T18:37:26.416Z,18.00
2018-03-08T18:39:53.158Z,17.53
2018-03-08T18:42:19.661Z,18.50
2018-03-08T18:44:48.454Z,20.20
2018-03-08T18:47:16.266Z,19.07
2018-03-08T18:49:42.745Z,18.27
2018-03-08T18:52:09.300Z,20.27
2018-03-08T18:54:36.178Z,21.23
2018-03-08T18:57:05.408Z,20.88
2018-03-08T18:59:32.021Z,20.73
2018-03-08T19:01:58.490Z,19.20
2018-03-08T19:04:25.069Z,20.40
2018-03-08T19:06:51.536Z,20.10
2018-03-08T19:09:17.998Z,21.70
2018-03-08T19:11:44.572Z,22.53
2018-03-08T19:14:11.013Z,19.70
2018-03-08T19:16:37.579Z,21.63
2018-03-08T19:19:05.037Z,19.60
2018-03-08T19:21:31.477Z,20.87
2018-03-08T19:23:57.876Z,18.03
2018-03-08T19:26:24.439Z,21.17
2018-03-08T19:28:50.898Z,20.70
2018-03-08T19:31:17.360Z,20.92
2018-03-08T19:33:43.901Z,20.02
2018-03-08T19:36:10.418Z,21.48
2018-03-08T19:38:36.827Z,22.10
2018-03-08T19:41:03.242Z,19.23
2018-03-08T19:43:29.692Z,19.07
2018-03-08T19:45:56.932Z,19.00
2018-03-08T19:48:23.458Z,18.10
2018-03-08T19:50:51.624Z,20.47
2018-03-08T19:53:18.091Z,18.70
2018-03-08T19:55:45.918Z,20.93
2018-03-08T19:58:13.304Z,19.97
2018-03-08T20:00:39.725Z,19.80
2018-03-08T20:03:06.360Z,18.43
2018-03-08T20:05:34.235Z,18.37
2018-03-08T20:08:00.905Z,18.27
2018-03-08T20:10:27.355Z,17.60
2018-03-08T20:12:55.775Z,20.23
2018-03-08T20:15:22.258Z,16.90
2018-03-08T20:17:48.750Z,18.37
2018-03-08T20:20:15.227Z,16.80
2018-03-08T20:22:41.649Z,16.70
2018-03-08T20:25:08.981Z,18.67
2018-03-08T20:27:35.401Z,17.97
2018-03-08T20:30:01.910Z,18.97
2018-03-08T20:32:28.547Z,19.23
2018-03-08T20:34:55.729Z,17.53
2018-03-08T20:37:22.196Z,18.57
2018-03-08T20:39:48.825Z,17.73
2018-03-08T20:42:15.341Z,18.07
2018-03-08T20:44:41.789Z,18.60
2018-03-08T20:47:08.378Z,17.87
2018-03-08T20:49:34.807Z,17.93
2018-03-08T20:52:01.306Z,18.30
2018-03-08T20:54:28.497Z,18.23
2018-03-08T20:56:55.002Z,16.87
2018-03-08T20:59:21.421Z,17.07
2018-03-08T21:01:47.862Z,18.77
2018-03-08T21:04:15.115Z,17.53
2018-03-08T21:06:41.548Z,19.73
2018-03-08T21:09:08.824Z,19.07
2018-03-08T21:11:35.956Z,17.93
2018-03-08T21:14:02.437Z,18.17
2018-03-08T21:16:28.895Z,16.37
2018-03-08T21:18:55.344Z,17.40
2018-03-08T21:21:22.572Z,17.73
2018-03-08T21:23:49.084Z,15.80
2018-03-08T21:26:15.508Z,16.77
2018-03-08T21:28:42.065Z,18.70
2018-03-08T21:31:08.688Z,17.20
2018-03-08T21:33:35.979Z,17.73
2018-03-08T21:36:03.170Z,16.17
2018-03-08T21:38:29.631Z,17.40
2018-03-08T21:40:56.092Z,15.90
2018-03-08T21:43:22.580Z,17.67
2018-03-08T21:45:49.212Z,16.47
2018-03-08T21:48:15.784Z,17.73
2018-03-08T21:50:43.154Z,16.97
2018-03-08T21:53:09.604Z,16.23
2018-03-08T21:55:36.196Z,16.70
2018-03-08T21:58:02.761Z,16.47
2018-03-08T22:00:29.168Z,17.23
2018-03-08T22:02:55.621Z,15.40
2018-03-08T22:05:22.034Z,16.00
2018-03-08T22:07:49.368Z,16.20
2018-03-08T22:10:15.860Z,16.87
2018-03-08T22:12:42.289Z,16.53
2018-03-08T22:15:08.774Z,17.47
2018-03-08T22:17:35.253Z,17.70
2018-03-08T22:20:01.723Z,15.77
2018-03-08T22:22:28.267Z,15.43
2018-03-08T22:24:54.931Z,17.00
2018-03-08T22:27:21.374Z,16.50
2018-03-08T22:29:47.839Z,15.50
2018-03-08T22:32:14.288Z,16.30
2018-03-08T22:34:40.860Z,14.87
2018-03-08T22:37:07.595Z,14.93
2018-03-08T22:39:34.786Z,15.37
2018-03-08T22:42:01.324Z,17.43
2018-03-08T22:44:27.761Z,15.90
2018-03-08T22:46:54.234Z,15.87
2018-03-08T22:49:20.691Z,15.93
2018-03-08T22:51:47.101Z,15.97
2018-03-08T22:54:14.288Z,15.50
2018-03-08T22:56:40.763Z,15.80
2018-03-08T22:59:07.972Z,17.93
2018-03-08T23:04:53.224Z,15.90
2018-03-08T23:07:19.650Z,16.93
2018-03-08T23:09:46.123Z,17.33
2018-03-08T23:12:12.667Z,15.87
2018-03-08T23:14:39.101Z,16.27
2018-03-08T23:17:05.724Z,15.63
2018-03-08T23:19:32.416Z,17.13
2018-03-08T23:21:58.935Z,17.73
2018-03-08T23:24:25.348Z,17.47
2018-03-08T23:26:51.795Z,16.87
2018-03-08T23:29:18.250Z,19.03
2018-03-08T23:31:44.798Z,16.00
2018-03-08T23:34:11.339Z,18.10
2018-03-08T23:36:38.159Z,18.03
2018-03-08T23:39:04.606Z,15.40
2018-03-08T23:41:31.057Z,17.83
2018-03-08T23:43:57.603Z,19.83
2018-03-08T23:46:24.078Z,19.83
2018-03-08T23:48:50.497Z,18.47
2018-03-08T23:51:16.961Z,17.70
2018-03-08T23:53:43.430Z,18.73
2018-03-08T23:56:09.891Z,19.47
2018-03-08T23:58:36.400Z,18.67
